Terminal Aerodrome Forecast
Issued by NWS Sioux Falls, SD

Home | Current Version | Previous Version | Graphics & Text | Print | Product List | Glossary On
Versions: 1 2 3 4 5 6 7 8 9 10 11 12 13 14 15 16 17 18 19 20 21
000
FTUS43 KFSD 221724
TAFSUX
TAF
KSUX 221724Z 2218/2318 32011KT P6SM SCT020 BKN045
     FM230100 32006KT P6SM BKN015
     FM230400 32006KT P6SM SCT015
     FM231000 32004KT P6SM BKN015
     FM231200 VRB03KT 4SM BR BKN008
     FM231500 00000KT P6SM OVC250=

USA.gov is the U.S. government's official web portal to all federal, state and local government web resources and services.